Time;durP1;ratioP1;P1;durP2;ratioP2;P2;SDS_P1;SDS_P2;PMS_P1;PMS_P2;Temp;Humidity;BMP_temperature;BMP_pressure;BME280_temperature;BME280_humidity;BME280_pressure;Samples;Min_cycle;Max_cycle;Signal;HPM_P1;HPM_P2
2023/03/06 00:00:24;;;;;;;20.35;13.20;;;5.00;99.90;;;;;;6210691;23;20433;-77
2023/03/06 00:02:52;;;;;;;17.53;13.20;;;5.00;99.90;;;;;;6209761;23;20394;-77
2023/03/06 00:05:19;;;;;;;18.15;13.10;;;5.00;99.90;;;;;;6209935;23;20853;-77
2023/03/06 00:07:46;;;;;;;17.92;13.43;;;4.90;99.90;;;;;;6209430;23;20756;-77
2023/03/06 00:10:24;;;;;;;17.42;12.88;;;4.90;99.90;;;;;;6209871;23;20409;-78
2023/03/06 00:12:52;;;;;;;20.42;15.32;;;4.80;99.90;;;;;;6209575;23;20398;-77
2023/03/06 00:15:20;;;;;;;18.80;14.00;;;4.80;99.90;;;;;;6210142;23;20406;-77
2023/03/06 00:17:47;;;;;;;17.00;12.43;;;4.80;99.90;;;;;;6209074;23;20436;-78
2023/03/06 00:20:14;;;;;;;19.05;13.00;;;4.70;99.90;;;;;;6210167;23;20828;-78
2023/03/06 00:22:42;;;;;;;17.40;12.77;;;4.70;99.90;;;;;;6210776;23;20390;-78
2023/03/06 00:25:13;;;;;;;16.85;13.02;;;4.70;99.90;;;;;;6209612;23;20375;-77
2023/03/06 00:27:40;;;;;;;16.95;13.07;;;4.60;99.90;;;;;;6209472;23;20398;-77
2023/03/06 00:30:09;;;;;;;18.38;14.10;;;4.60;99.90;;;;;;6209457;23;20812;-77
2023/03/06 00:32:36;;;;;;;17.60;13.60;;;4.60;99.90;;;;;;6209788;23;20378;-77
2023/03/06 00:35:03;;;;;;;18.77;14.32;;;4.60;99.90;;;;;;6208608;23;20709;-77
2023/03/06 00:37:30;;;;;;;19.63;14.15;;;4.60;99.90;;;;;;6210435;23;20366;-77
2023/03/06 00:39:57;;;;;;;16.83;12.60;;;4.60;99.90;;;;;;6209057;23;20756;-78
2023/03/06 00:42:24;;;;;;;21.15;14.38;;;4.60;99.90;;;;;;6210201;23;20390;-77
2023/03/06 00:44:51;;;;;;;22.13;15.40;;;4.60;99.90;;;;;;6209146;23;20371;-77
2023/03/06 00:47:18;;;;;;;17.92;13.45;;;4.70;99.90;;;;;;6209849;23;20378;-77
2023/03/06 00:49:45;;;;;;;17.23;12.35;;;4.60;99.90;;;;;;6208677;23;20366;-80
2023/03/06 00:52:12;;;;;;;15.30;12.38;;;4.60;99.90;;;;;;6210273;23;20867;-77
2023/03/06 00:54:40;;;;;;;16.42;12.45;;;4.60;99.90;;;;;;6209965;23;20435;-78
2023/03/06 00:57:07;;;;;;;16.77;12.25;;;4.60;99.90;;;;;;6209144;23;20738;-78
2023/03/06 00:59:34;;;;;;;15.07;11.70;;;4.60;99.90;;;;;;6210839;23;20409;-77
2023/03/06 01:02:02;;;;;;;16.45;12.70;;;4.50;99.90;;;;;;6210238;23;20383;-77
2023/03/06 01:04:29;;;;;;;16.60;12.57;;;4.50;99.90;;;;;;6209425;23;20441;-77
2023/03/06 01:06:56;;;;;;;15.73;12.53;;;4.50;99.90;;;;;;6209185;23;20516;-78
2023/03/06 01:09:23;;;;;;;16.75;12.43;;;4.50;99.90;;;;;;6209128;23;20374;-77
2023/03/06 01:11:50;;;;;;;18.10;13.38;;;4.50;99.90;;;;;;6209260;23;20370;-77
2023/03/06 01:14:18;;;;;;;17.00;12.43;;;4.50;99.90;;;;;;6209668;23;20367;-77
2023/03/06 01:16:46;;;;;;;15.02;11.38;;;4.50;99.90;;;;;;6208903;23;20375;-77
2023/03/06 01:19:13;;;;;;;15.50;12.15;;;4.40;99.90;;;;;;6209483;23;20387;-77
2023/03/06 01:21:40;;;;;;;14.65;11.10;;;4.40;99.90;;;;;;6209807;23;20450;-77
2023/03/06 01:24:07;;;;;;;16.35;11.52;;;4.40;99.90;;;;;;6208662;23;20393;-77
2023/03/06 01:26:35;;;;;;;15.70;11.43;;;4.40;99.90;;;;;;6209825;23;20746;-78
2023/03/06 01:29:02;;;;;;;16.77;12.88;;;4.40;99.90;;;;;;6208991;23;20700;-78
2023/03/06 01:31:29;;;;;;;18.52;12.43;;;4.40;99.90;;;;;;6209668;23;20471;-77
2023/03/06 01:33:56;;;;;;;14.37;11.17;;;4.40;99.90;;;;;;6208528;23;20375;-77
2023/03/06 01:36:23;;;;;;;14.55;11.40;;;4.40;99.90;;;;;;6210634;23;20474;-77
2023/03/06 01:38:50;;;;;;;16.38;11.63;;;4.40;99.90;;;;;;6208807;23;20405;-77
2023/03/06 01:41:17;;;;;;;19.02;13.15;;;4.30;99.90;;;;;;6208033;23;20490;-77
2023/03/06 01:43:45;;;;;;;18.65;13.60;;;4.30;99.90;;;;;;6207941;23;20421;-77
2023/03/06 01:46:40;;;;;;;17.75;12.88;;;4.30;99.90;;;;;;6209059;23;20379;-78
2023/03/06 01:49:30;;;;;;;17.10;12.35;;;4.30;99.90;;;;;;6208671;23;20394;-77
2023/03/06 01:52:01;;;;;;;20.33;13.18;;;4.40;99.90;;;;;;6208674;23;20379;-77
2023/03/06 01:54:45;;;;;;;17.25;12.40;;;4.40;99.90;;;;;;6209138;23;20398;-77
2023/03/06 01:57:29;;;;;;;17.20;12.93;;;4.40;99.90;;;;;;6208632;23;20429;-78
2023/03/06 02:00:21;;;;;;;15.05;12.13;;;4.50;99.90;;;;;;6208621;23;20371;-77
